Wetterdaten: Woche 08.07.13 - 14.07.13 (KW28)
Datum Zeit Temperatur Luftfeuchte Luftdruck Niederschlag Windrichtung Sonnenschein Solar Wind
08.07.2013 00:00 19,1 C 77 % 1023,4 hPa 0,0 l/m O-NO 0,00 h 0 W/m 7,4 km/h (2 Bft)
08.07.2013 01:00 18,3 C 81 % 1023,2 hPa 0,0 l/m O-NO 0,00 h 0 W/m 5,7 km/h (1 Bft)
08.07.2013 02:00 17,8 C 82 % 1023,1 hPa 0,0 l/m NO 0,00 h 0 W/m 10,4 km/h (2 Bft)
08.07.2013 03:00 16,7 C 86 % 1023,1 hPa 0,0 l/m NO 0,00 h 0 W/m 7,6 km/h (2 Bft)
08.07.2013 04:00 16,1 C 87 % 1022,8 hPa 0,0 l/m N-NO 0,00 h 0 W/m 11,8 km/h (2 Bft)
08.07.2013 05:00 15,1 C 89 % 1022,9 hPa 0,0 l/m NO 0,00 h 8 W/m 7,2 km/h (2 Bft)
08.07.2013 06:00 14,8 C 89 % 1023,2 hPa 0,0 l/m N 0,00 h 46 W/m 7,9 km/h (2 Bft)
08.07.2013 07:00 16,0 C 84 % 1023,4 hPa 0,0 l/m NO 0,25 h 140 W/m 9,3 km/h (2 Bft)
08.07.2013 08:00 17,5 C 79 % 1023,7 hPa 0,0 l/m NO 0,92 h 306 W/m 12,4 km/h (3 Bft)
08.07.2013 09:00 19,4 C 74 % 1023,5 hPa 0,0 l/m NO 1,00 h 457 W/m 14,0 km/h (3 Bft)
08.07.2013 10:00 21,0 C 70 % 1023,3 hPa 0,0 l/m NO 1,00 h 647 W/m 16,1 km/h (3 Bft)
08.07.2013 11:00 22,6 C 65 % 1023,1 hPa 0,0 l/m O-NO 1,00 h 749 W/m 21,0 km/h (4 Bft)
08.07.2013 12:00 23,7 C 61 % 1022,9 hPa 0,0 l/m O-NO 1,00 h 854 W/m 21,8 km/h (4 Bft)
08.07.2013 13:00 24,4 C 59 % 1022,7 hPa 0,0 l/m O 0,58 h 630 W/m 22,5 km/h (4 Bft)
08.07.2013 14:00 24,6 C 57 % 1022,2 hPa 0,0 l/m NO 0,58 h 674 W/m 23,3 km/h (4 Bft)
08.07.2013 15:00 25,3 C 54 % 1021,8 hPa 0,0 l/m NO 0,92 h 786 W/m 22,4 km/h (4 Bft)
08.07.2013 16:00 25,6 C 53 % 1021,3 hPa 0,0 l/m O-NO 0,83 h 636 W/m 24,0 km/h (4 Bft)
08.07.2013 17:00 24,9 C 54 % 1021,1 hPa 0,0 l/m O-NO 0,17 h 283 W/m 21,6 km/h (4 Bft)
08.07.2013 18:00 24,0 C 56 % 1021,2 hPa 0,0 l/m O-NO 0,00 h 160 W/m 19,2 km/h (3 Bft)
08.07.2013 19:00 23,8 C 56 % 1021,2 hPa 0,0 l/m O-NO 0,50 h 185 W/m 15,7 km/h (3 Bft)
08.07.2013 20:00 22,7 C 58 % 1021,6 hPa 0,0 l/m O-NO 0,25 h 54 W/m 11,9 km/h (2 Bft)
08.07.2013 21:00 20,8 C 66 % 1021,8 hPa 0,0 l/m N 0,17 h 11 W/m 2,7 km/h (1 Bft)
08.07.2013 22:00 18,9 C 73 % 1021,9 hPa 0,0 l/m N 0,00 h 0 W/m 1,7 km/h (1 Bft)
08.07.2013 23:00 17,7 C 78 % 1021,7 hPa 0,0 l/m N 0,00 h 0 W/m 2,7 km/h (1 Bft)
09.07.2013 00:00 17,3 C 77 % 1021,5 hPa 0,0 l/m NO 0,00 h 0 W/m 4,8 km/h (1 Bft)
09.07.2013 01:00 17,2 C 77 % 1021,4 hPa 0,0 l/m NO 0,00 h 0 W/m 4,4 km/h (1 Bft)
09.07.2013 02:00 16,0 C 83 % 1021,2 hPa 0,0 l/m N 0,00 h 0 W/m 2,9 km/h (1 Bft)
09.07.2013 03:00 15,5 C 85 % 1020,6 hPa 0,0 l/m NO 0,00 h 0 W/m 4,5 km/h (1 Bft)
09.07.2013 04:00 15,4 C 85 % 1020,2 hPa 0,0 l/m NO 0,00 h 0 W/m 6,0 km/h (2 Bft)
09.07.2013 05:00 14,8 C 87 % 1020,2 hPa 0,0 l/m N-NO 0,00 h 8 W/m 4,5 km/h (1 Bft)
09.07.2013 06:00 14,8 C 87 % 1020,1 hPa 0,0 l/m N 0,00 h 48 W/m 10,0 km/h (2 Bft)
09.07.2013 07:00 15,8 C 85 % 1020,1 hPa 0,0 l/m N-NO 0,25 h 150 W/m 10,5 km/h (2 Bft)
09.07.2013 08:00 17,6 C 78 % 1019,9 hPa 0,0 l/m NO 1,00 h 332 W/m 13,6 km/h (3 Bft)
09.07.2013 09:00 19,4 C 73 % 1019,7 hPa 0,0 l/m O-NO 1,00 h 489 W/m 14,5 km/h (3 Bft)
09.07.2013 10:00 21,6 C 65 % 1019,2 hPa 0,0 l/m O 1,00 h 615 W/m 18,4 km/h (3 Bft)
09.07.2013 11:00 23,1 C 58 % 1019,0 hPa 0,0 l/m O-NO 1,00 h 746 W/m 22,1 km/h (4 Bft)
09.07.2013 12:00 24,3 C 54 % 1019,0 hPa 0,0 l/m O-SO 1,00 h 830 W/m 20,5 km/h (4 Bft)
09.07.2013 13:00 25,1 C 53 % 1018,5 hPa 0,0 l/m O 1,00 h 844 W/m 18,9 km/h (3 Bft)
09.07.2013 14:00 25,8 C 51 % 1017,8 hPa 0,0 l/m O 1,00 h 800 W/m 17,7 km/h (3 Bft)
09.07.2013 15:00 26,1 C 50 % 1017,4 hPa 0,0 l/m O-NO 0,75 h 650 W/m 18,6 km/h (3 Bft)
09.07.2013 16:00 26,1 C 50 % 1017,0 hPa 0,0 l/m O-NO 0,83 h 554 W/m 16,1 km/h (3 Bft)
09.07.2013 17:00 25,7 C 51 % 1016,6 hPa 0,0 l/m O-NO 0,33 h 298 W/m 14,6 km/h (3 Bft)
09.07.2013 18:00 25,0 C 53 % 1016,3 hPa 0,0 l/m O-NO 0,58 h 262 W/m 13,2 km/h (3 Bft)
09.07.2013 19:00 24,4 C 55 % 1016,2 hPa 0,0 l/m O-NO 0,75 h 169 W/m 13,2 km/h (3 Bft)
09.07.2013 20:00 22,8 C 59 % 1016,1 hPa 0,0 l/m NO 0,00 h 32 W/m 10,1 km/h (2 Bft)
09.07.2013 21:00 21,3 C 63 % 1016,5 hPa 0,0 l/m NO 0,08 h 8 W/m 10,4 km/h (2 Bft)
09.07.2013 22:00 20,2 C 67 % 1016,8 hPa 0,0 l/m NO 0,00 h 0 W/m 6,7 km/h (2 Bft)
09.07.2013 23:00 19,1 C 72 % 1016,8 hPa 0,0 l/m N-NO 0,00 h 0 W/m 7,6 km/h (2 Bft)
10.07.2013 00:00 18,5 C 72 % 1016,6 hPa 0,0 l/m N 0,00 h 0 W/m 6,9 km/h (2 Bft)
10.07.2013 01:00 17,4 C 76 % 1016,1 hPa 0,0 l/m N 0,00 h 0 W/m 2,3 km/h (1 Bft)
10.07.2013 02:00 17,0 C 80 % 1015,7 hPa 0,0 l/m N 0,00 h 0 W/m 1,1 km/h (0 Bft)
10.07.2013 03:00 17,4 C 77 % 1015,4 hPa 0,0 l/m N 0,00 h 0 W/m 2,0 km/h (1 Bft)
10.07.2013 04:00 17,6 C 76 % 1015,2 hPa 0,0 l/m N 0,00 h 0 W/m 5,9 km/h (2 Bft)
10.07.2013 05:00 16,8 C 78 % 1015,1 hPa 0,0 l/m N 0,00 h 7 W/m 6,2 km/h (2 Bft)
10.07.2013 06:00 16,3 C 81 % 1015,2 hPa 0,0 l/m N-NW 0,00 h 31 W/m 6,0 km/h (2 Bft)
10.07.2013 07:00 17,4 C 77 % 1015,1 hPa 0,0 l/m N 0,67 h 169 W/m 4,4 km/h (1 Bft)
10.07.2013 08:00 19,1 C 75 % 1015,1 hPa 0,0 l/m N 0,92 h 293 W/m 5,2 km/h (1 Bft)
10.07.2013 09:00 21,5 C 67 % 1014,8 hPa 0,0 l/m NO 1,00 h 510 W/m 6,8 km/h (2 Bft)
10.07.2013 10:00 23,3 C 55 % 1014,5 hPa 0,0 l/m NO 1,00 h 641 W/m 11,8 km/h (2 Bft)
10.07.2013 11:00 24,3 C 50 % 1014,3 hPa 0,0 l/m O-NO 1,00 h 769 W/m 15,4 km/h (3 Bft)
10.07.2013 12:00 25,3 C 46 % 1014,0 hPa 0,0 l/m O-NO 1,00 h 874 W/m 18,6 km/h (3 Bft)
10.07.2013 13:00 25,8 C 44 % 1013,7 hPa 0,0 l/m O 1,00 h 899 W/m 16,9 km/h (3 Bft)
10.07.2013 14:00 26,5 C 44 % 1013,4 hPa 0,0 l/m O-NO 0,92 h 825 W/m 15,3 km/h (3 Bft)
10.07.2013 15:00 26,3 C 45 % 1012,9 hPa 0,0 l/m O-NO 0,75 h 641 W/m 15,2 km/h (3 Bft)
10.07.2013 16:00 26,2 C 46 % 1012,5 hPa 0,0 l/m NO 0,50 h 399 W/m 14,5 km/h (3 Bft)
10.07.2013 17:00 26,0 C 48 % 1012,0 hPa 0,0 l/m N-NO 0,83 h 462 W/m 13,8 km/h (3 Bft)
10.07.2013 18:00 25,1 C 51 % 1011,6 hPa 0,0 l/m NO 0,50 h 208 W/m 12,9 km/h (3 Bft)
10.07.2013 19:00 24,6 C 54 % 1011,4 hPa 0,0 l/m N-NO 1,00 h 173 W/m 9,4 km/h (2 Bft)
10.07.2013 20:00 22,9 C 59 % 1011,4 hPa 0,0 l/m N 0,00 h 43 W/m 7,4 km/h (2 Bft)
10.07.2013 21:00 20,9 C 66 % 1011,8 hPa 0,0 l/m N 0,00 h 7 W/m 5,8 km/h (1 Bft)
10.07.2013 22:00 19,4 C 70 % 1012,3 hPa 0,0 l/m N 0,00 h 0 W/m 6,1 km/h (2 Bft)
10.07.2013 23:00 18,5 C 74 % 1012,6 hPa 0,0 l/m N 0,00 h 0 W/m 7,2 km/h (2 Bft)
11.07.2013 00:00 17,6 C 78 % 1012,9 hPa 0,0 l/m N-NW 0,00 h 0 W/m 5,7 km/h (1 Bft)
11.07.2013 01:00 16,7 C 78 % 1013,1 hPa 0,0 l/m N-NW 0,00 h 0 W/m 5,3 km/h (1 Bft)
11.07.2013 02:00 15,9 C 80 % 1013,2 hPa 0,0 l/m N-NW 0,00 h 0 W/m 5,5 km/h (1 Bft)
11.07.2013 03:00 15,6 C 82 % 1013,1 hPa 0,0 l/m N 0,00 h 0 W/m 6,7 km/h (2 Bft)
11.07.2013 04:00 15,0 C 85 % 1013,1 hPa 0,0 l/m N-NO 0,00 h 0 W/m 4,4 km/h (1 Bft)
11.07.2013 05:00 13,8 C 90 % 1013,1 hPa 0,0 l/m N-NO 0,00 h 8 W/m 5,3 km/h (1 Bft)
11.07.2013 06:00 13,7 C 90 % 1013,3 hPa 0,0 l/m N-NO 0,00 h 28 W/m 7,6 km/h (2 Bft)
11.07.2013 07:00 14,2 C 86 % 1013,6 hPa 0,0 l/m N-NO 0,17 h 122 W/m 13,6 km/h (3 Bft)
11.07.2013 08:00 14,8 C 84 % 1014,0 hPa 0,0 l/m NO 0,00 h 137 W/m 13,8 km/h (3 Bft)
11.07.2013 09:00 15,7 C 80 % 1014,2 hPa 0,0 l/m NO 0,42 h 311 W/m 12,5 km/h (3 Bft)
11.07.2013 10:00 17,3 C 75 % 1014,2 hPa 0,0 l/m O-NO 0,33 h 420 W/m 13,3 km/h (3 Bft)
11.07.2013 11:00 18,5 C 70 % 1014,4 hPa 0,0 l/m O-NO 0,33 h 515 W/m 16,4 km/h (3 Bft)
11.07.2013 12:00 19,1 C 66 % 1014,7 hPa 0,0 l/m N-NO 0,08 h 368 W/m 14,2 km/h (3 Bft)
11.07.2013 13:00 19,9 C 60 % 1014,5 hPa 0,0 l/m NO 0,42 h 575 W/m 14,5 km/h (3 Bft)
11.07.2013 14:00 21,4 C 53 % 1014,4 hPa 0,0 l/m NO 1,00 h 888 W/m 18,0 km/h (3 Bft)
11.07.2013 15:00 22,0 C 48 % 1014,5 hPa 0,0 l/m N-NO 0,92 h 748 W/m 16,9 km/h (3 Bft)
11.07.2013 16:00 22,2 C 47 % 1014,6 hPa 0,0 l/m NO 0,92 h 660 W/m 15,8 km/h (3 Bft)
11.07.2013 17:00 22,0 C 47 % 1014,7 hPa 0,0 l/m NO 1,00 h 569 W/m 16,9 km/h (3 Bft)
11.07.2013 18:00 21,3 C 49 % 1014,7 hPa 0,0 l/m O-NO 1,00 h 392 W/m 15,2 km/h (3 Bft)
11.07.2013 19:00 20,4 C 50 % 1014,9 hPa 0,0 l/m O-NO 1,00 h 216 W/m 14,9 km/h (3 Bft)
11.07.2013 20:00 19,0 C 54 % 1015,3 hPa 0,0 l/m O-NO 0,33 h 46 W/m 8,7 km/h (2 Bft)
11.07.2013 21:00 17,2 C 62 % 1015,7 hPa 0,0 l/m N 0,00 h 8 W/m 4,5 km/h (1 Bft)
11.07.2013 22:00 15,4 C 70 % 1016,4 hPa 0,0 l/m N 0,00 h 0 W/m 3,1 km/h (1 Bft)
11.07.2013 23:00 14,8 C 70 % 1016,7 hPa 0,0 l/m O-NO 0,00 h 0 W/m 6,3 km/h (2 Bft)
12.07.2013 00:00 13,4 C 77 % 1017,1 hPa 0,0 l/m N 0,00 h 0 W/m 2,3 km/h (1 Bft)
12.07.2013 01:00 12,2 C 83 % 1017,2 hPa 0,0 l/m O-NO 0,00 h 0 W/m 2,9 km/h (1 Bft)
12.07.2013 02:00 11,6 C 84 % 1016,9 hPa 0,0 l/m O-NO 0,00 h 0 W/m 4,4 km/h (1 Bft)
12.07.2013 03:00 11,1 C 86 % 1016,8 hPa 0,0 l/m O-NO 0,00 h 0 W/m 4,0 km/h (1 Bft)
12.07.2013 04:00 10,8 C 87 % 1016,8 hPa 0,0 l/m N-NO 0,00 h 0 W/m 3,3 km/h (1 Bft)
12.07.2013 05:00 10,2 C 90 % 1017,0 hPa 0,0 l/m N 0,00 h 7 W/m 2,1 km/h (1 Bft)
12.07.2013 06:00 10,4 C 89 % 1017,2 hPa 0,0 l/m N 0,00 h 47 W/m 5,5 km/h (1 Bft)
12.07.2013 07:00 12,0 C 84 % 1017,2 hPa 0,0 l/m N-NO 0,83 h 183 W/m 6,4 km/h (2 Bft)
12.07.2013 08:00 14,6 C 76 % 1017,3 hPa 0,0 l/m NO 1,00 h 351 W/m 7,9 km/h (2 Bft)
12.07.2013 09:00 16,9 C 66 % 1017,3 hPa 0,0 l/m O-NO 1,00 h 511 W/m 15,6 km/h (3 Bft)
12.07.2013 10:00 18,5 C 56 % 1017,3 hPa 0,0 l/m O-NO 0,92 h 621 W/m 18,1 km/h (3 Bft)
12.07.2013 11:00 19,6 C 52 % 1017,3 hPa 0,0 l/m O 1,00 h 775 W/m 17,3 km/h (3 Bft)
12.07.2013 12:00 20,5 C 49 % 1017,5 hPa 0,0 l/m O 1,00 h 862 W/m 17,7 km/h (3 Bft)
12.07.2013 13:00 21,4 C 48 % 1017,3 hPa 0,0 l/m O-NO 1,00 h 872 W/m 15,6 km/h (3 Bft)
12.07.2013 14:00 22,1 C 46 % 1017,2 hPa 0,0 l/m O-NO 1,00 h 863 W/m 16,1 km/h (3 Bft)
12.07.2013 15:00 22,9 C 43 % 1017,0 hPa 0,0 l/m O 1,00 h 798 W/m 13,3 km/h (3 Bft)
12.07.2013 16:00 23,1 C 44 % 1016,9 hPa 0,0 l/m O-NO 1,00 h 694 W/m 12,6 km/h (3 Bft)
12.07.2013 17:00 23,1 C 44 % 1016,6 hPa 0,0 l/m N-NO 1,00 h 540 W/m 13,2 km/h (3 Bft)
12.07.2013 18:00 22,5 C 44 % 1016,5 hPa 0,0 l/m O-NO 1,00 h 367 W/m 11,8 km/h (2 Bft)
12.07.2013 19:00 21,8 C 45 % 1016,4 hPa 0,0 l/m O-NO 1,00 h 208 W/m 9,7 km/h (2 Bft)
12.07.2013 20:00 20,3 C 52 % 1016,6 hPa 0,0 l/m O-NO 0,25 h 47 W/m 4,4 km/h (1 Bft)
12.07.2013 21:00 17,4 C 65 % 1016,8 hPa 0,0 l/m N 0,08 h 7 W/m 1,9 km/h (1 Bft)
12.07.2013 22:00 15,1 C 73 % 1017,3 hPa 0,0 l/m N 0,00 h 0 W/m 0,4 km/h (0 Bft)
12.07.2013 23:00 14,2 C 76 % 1017,4 hPa 0,0 l/m N 0,00 h 0 W/m 1,3 km/h (1 Bft)
13.07.2013 00:00 13,6 C 78 % 1017,3 hPa 0,0 l/m N 0,00 h 0 W/m 1,3 km/h (1 Bft)
13.07.2013 01:00 13,2 C 80 % 1017,3 hPa 0,0 l/m N 0,00 h 0 W/m 3,3 km/h (1 Bft)
13.07.2013 02:00 13,0 C 80 % 1017,3 hPa 0,0 l/m N-NW 0,00 h 0 W/m 5,1 km/h (1 Bft)
13.07.2013 03:00 12,4 C 83 % 1017,3 hPa 0,0 l/m N 0,00 h 0 W/m 2,3 km/h (1 Bft)
13.07.2013 04:00 11,6 C 87 % 1017,2 hPa 0,0 l/m N 0,00 h 0 W/m 1,3 km/h (1 Bft)
13.07.2013 05:00 11,2 C 88 % 1017,1 hPa 0,0 l/m N 0,00 h 8 W/m 2,1 km/h (1 Bft)
13.07.2013 06:00 11,6 C 87 % 1017,0 hPa 0,0 l/m N 0,00 h 39 W/m 2,5 km/h (1 Bft)
13.07.2013 07:00 13,4 C 81 % 1017,0 hPa 0,0 l/m N-NW 0,75 h 171 W/m 3,2 km/h (1 Bft)
13.07.2013 08:00 15,4 C 75 % 1017,2 hPa 0,0 l/m N 1,00 h 327 W/m 6,5 km/h (2 Bft)
13.07.2013 09:00 18,1 C 67 % 1017,4 hPa 0,0 l/m O 1,00 h 490 W/m 7,4 km/h (2 Bft)
13.07.2013 10:00 20,3 C 60 % 1017,4 hPa 0,0 l/m O 0,92 h 610 W/m 8,3 km/h (2 Bft)
13.07.2013 11:00 21,9 C 51 % 1017,3 hPa 0,0 l/m O-NO 1,00 h 757 W/m 12,4 km/h (3 Bft)
13.07.2013 12:00 22,8 C 47 % 1017,2 hPa 0,0 l/m O-SO 1,00 h 853 W/m 11,7 km/h (2 Bft)
13.07.2013 13:00 23,3 C 46 % 1017,0 hPa 0,0 l/m NO 0,92 h 817 W/m 10,2 km/h (2 Bft)
13.07.2013 14:00 23,7 C 44 % 1017,0 hPa 0,0 l/m N-NO 0,75 h 679 W/m 11,3 km/h (2 Bft)
13.07.2013 15:00 24,3 C 41 % 1017,0 hPa 0,0 l/m NO 1,00 h 758 W/m 10,3 km/h (2 Bft)
13.07.2013 16:00 24,7 C 41 % 1017,0 hPa 0,0 l/m N 1,00 h 655 W/m 11,7 km/h (2 Bft)
13.07.2013 17:00 24,8 C 40 % 1016,6 hPa 0,0 l/m O-NO 1,00 h 520 W/m 11,9 km/h (2 Bft)
13.07.2013 18:00 24,3 C 42 % 1016,5 hPa 0,0 l/m N-NO 1,00 h 348 W/m 11,7 km/h (2 Bft)
13.07.2013 19:00 23,4 C 45 % 1016,6 hPa 0,0 l/m O-NO 0,92 h 180 W/m 11,8 km/h (2 Bft)
13.07.2013 20:00 21,9 C 49 % 1017,0 hPa 0,0 l/m O-NO 0,17 h 43 W/m 8,8 km/h (2 Bft)
13.07.2013 21:00 19,2 C 58 % 1017,5 hPa 0,0 l/m NO 0,08 h 8 W/m 5,5 km/h (1 Bft)
13.07.2013 22:00 17,1 C 67 % 1018,1 hPa 0,0 l/m N-NO 0,00 h 0 W/m 5,3 km/h (1 Bft)
13.07.2013 23:00 16,2 C 71 % 1018,4 hPa 0,0 l/m N-NO 0,00 h 0 W/m 6,8 km/h (2 Bft)
14.07.2013 00:00 15,2 C 75 % 1018,6 hPa 0,0 l/m N 0,00 h 0 W/m 2,4 km/h (1 Bft)
14.07.2013 01:00 14,4 C 77 % 1018,7 hPa 0,0 l/m N 0,00 h 0 W/m 3,2 km/h (1 Bft)
14.07.2013 02:00 13,9 C 77 % 1018,7 hPa 0,0 l/m N 0,00 h 0 W/m 3,1 km/h (1 Bft)
14.07.2013 03:00 12,7 C 83 % 1018,6 hPa 0,0 l/m N 0,00 h 0 W/m 0,3 km/h (0 Bft)
14.07.2013 04:00 12,9 C 79 % 1018,5 hPa 0,0 l/m N 0,00 h 0 W/m 6,1 km/h (2 Bft)
14.07.2013 05:00 12,6 C 79 % 1018,6 hPa 0,0 l/m N 0,00 h 8 W/m 2,4 km/h (1 Bft)
14.07.2013 06:00 12,1 C 83 % 1018,9 hPa 0,0 l/m N 0,00 h 40 W/m 0,3 km/h (0 Bft)
14.07.2013 07:00 14,2 C 76 % 1019,1 hPa 0,0 l/m N 0,58 h 158 W/m 3,9 km/h (1 Bft)
14.07.2013 08:00 16,5 C 67 % 1019,1 hPa 0,0 l/m N 1,00 h 315 W/m 4,8 km/h (1 Bft)
14.07.2013 09:00 18,7 C 63 % 1019,0 hPa 0,0 l/m N-NO 1,00 h 474 W/m 6,6 km/h (2 Bft)
14.07.2013 10:00 20,9 C 54 % 1018,7 hPa 0,0 l/m O 0,92 h 605 W/m 7,7 km/h (2 Bft)
14.07.2013 11:00 22,2 C 47 % 1018,6 hPa 0,0 l/m O-NO 1,00 h 756 W/m 9,4 km/h (2 Bft)
14.07.2013 12:00 23,4 C 45 % 1018,6 hPa 0,0 l/m O-SO 1,00 h 828 W/m 11,3 km/h (2 Bft)
14.07.2013 13:00 23,9 C 43 % 1018,3 hPa 0,0 l/m N-NO 1,00 h 864 W/m 10,6 km/h (2 Bft)
14.07.2013 14:00 24,7 C 38 % 1018,0 hPa 0,0 l/m NO 1,00 h 839 W/m 11,8 km/h (2 Bft)
14.07.2013 15:00 25,6 C 37 % 1017,8 hPa 0,0 l/m O 1,00 h 773 W/m 12,9 km/h (3 Bft)
14.07.2013 16:00 26,6 C 37 % 1017,6 hPa 0,0 l/m O 1,00 h 670 W/m 12,5 km/h (3 Bft)
14.07.2013 17:00 26,5 C 38 % 1017,3 hPa 0,0 l/m NO 1,00 h 521 W/m 11,8 km/h (2 Bft)
14.07.2013 18:00 26,0 C 40 % 1017,1 hPa 0,0 l/m NO 1,00 h 353 W/m 8,0 km/h (2 Bft)
14.07.2013 19:00 25,1 C 42 % 1017,0 hPa 0,0 l/m NO 1,00 h 197 W/m 9,1 km/h (2 Bft)
14.07.2013 20:00 23,0 C 50 % 1017,1 hPa 0,0 l/m NO 0,17 h 45 W/m 4,5 km/h (1 Bft)
14.07.2013 21:00 20,3 C 60 % 1017,7 hPa 0,0 l/m NO 0,00 h 6 W/m 5,7 km/h (1 Bft)
14.07.2013 22:00 18,2 C 66 % 1018,2 hPa 0,0 l/m N 0,00 h 0 W/m 2,3 km/h (1 Bft)
14.07.2013 23:00 17,1 C 68 % 1018,5 hPa 0,0 l/m N 0,00 h 0 W/m 1,7 km/h (1 Bft)
Min-Datum _ 12.07.13 14.07.13 10.07.13 - - - - 08.07.13
_ Min-Zeit 06:10 15:20 19:45 - - - - 21:30
Minimum _ 10,0 C 35 % 1011,2 hPa - - - - 0,0 km/h (0 Bft)
Max-Datum _ 10.07.13 11.07.13 08.07.13 08.07.13 - 08.07.13 11.07.13 08.07.13
_ Max-Zeit 14:25 05:55 08:40 00:00 - 07:40 13:30 16:35
Maximum _ 27,2 C 91 % 1023,8 hPa 0,0 l/m - 0,08 h 997 W/m 33,8 km/h
O-NO (5 Bft)
Durchschnitt _ 19,3 C 65 % 1017,4 hPa #0,0 l/m O-NO #77:00 h 411 W/m 9,6 km/h (2 Bft)